메인 페이지
METAR-TAF:

METAR-TAF

공항 :

페어뱅크스, 알래스카, 미국

위도: 64-48-14N, 경도: 147-52-34W, 고도: 132m

현재 날씨관측

예보는 37분 전, 21:53시(UTC)에 발표되었습니다.
무풍
온도 -18°C
습도 71%
기압 1015 hPa
시정: 16.1km
고도 2300ft 상공 구름 많음

METAR: PAFA 202153Z 00000KT 10SM BKN023 M18/M22 A2998 RMK AO2 SLP170 T11831222 PNO $

시각: 13:30 (22:30 UTC)

예보

예보는 5 시간 8분 전, 17:22시(UTC)에 발표되었습니다.
예보 대상 시간: 20일 18시부터 21일 24시까지 (UTC)
여러 방향의 바람 3kt
시정: 10km
고도 2500ft 상공 구름 많음
고도 3500ft 상공 흐림
21일 0700시부터 (UTC)
여러 방향의 바람 3kt
시정: 10km
고도 2500ft 상공 구름 조금

TAF: PAFA 201722Z 2018/2124 VRB03KT P6SM BKN025 OVC035 FM210700 VRB03KT P6SM FEW025

4,000개 이상의 공항 관측 자료 및 예보 (METAR 및 TAF 보고).

지도상에서 검색 가능한 기상관측소가 노란 점과 빨간 점으로 표시되어 있습니다.

기상관측소 명을 보려면 표시 위로 마우스를 이동하세요.

날씨 관측과 예보를 보려면 클릭하세요.

지도 변경 : 확대하려면 엑스 표시가 있는 녹색 버튼, 축소하려면 빼기 표시가 있는 녹색 버튼, 다음 페이지의 지도를 보려면 녹색 화살표를 클릭하세요.


METAR-TAF: